sensor_id;sensor_type;location;lat;lon;timestamp;pressure;altitude;pressure_sealevel;temperature;humidity
68525;BME280;55524;51.380;13.372;2023-12-22T00:01:06;98002.31;;;4.47;100.00
68525;BME280;55524;51.380;13.372;2023-12-22T00:03:42;98010.34;;;4.44;100.00
68525;BME280;55524;51.380;13.372;2023-12-22T00:06:29;98003.47;;;4.41;100.00
68525;BME280;55524;51.380;13.372;2023-12-22T00:09:07;98002.63;;;4.41;100.00
68525;BME280;55524;51.380;13.372;2023-12-22T00:11:42;98000.97;;;4.40;100.00
68525;BME280;55524;51.380;13.372;2023-12-22T00:14:13;98002.63;;;4.41;100.00
68525;BME280;55524;51.380;13.372;2023-12-22T00:16:45;98009.88;;;4.36;100.00
68525;BME280;55524;51.380;13.372;2023-12-22T00:19:35;98021.47;;;4.30;100.00
68525;BME280;55524;51.380;13.372;2023-12-22T00:22:07;98010.09;;;4.31;100.00
68525;BME280;55524;51.380;13.372;2023-12-22T00:24:54;98017.72;;;4.36;100.00
68525;BME280;55524;51.380;13.372;2023-12-22T00:27:40;98015.25;;;4.33;100.00
68525;BME280;55524;51.380;13.372;2023-12-22T00:30:16;98012.66;;;4.33;100.00
68525;BME280;55524;51.380;13.372;2023-12-22T00:32:49;98023.09;;;4.33;100.00
68525;BME280;55524;51.380;13.372;2023-12-22T00:35:16;98029.28;;;4.32;100.00
68525;BME280;55524;51.380;13.372;2023-12-22T00:37:51;98034.31;;;4.35;100.00
68525;BME280;55524;51.380;13.372;2023-12-22T00:40:39;98020.09;;;4.40;100.00
68525;BME280;55524;51.380;13.372;2023-12-22T00:51:23;98025.78;;;4.49;100.00
68525;BME280;55524;51.380;13.372;2023-12-22T00:53:49;98030.22;;;4.47;100.00
68525;BME280;55524;51.380;13.372;2023-12-22T00:56:25;98033.47;;;4.52;100.00
68525;BME280;55524;51.380;13.372;2023-12-22T00:58:51;98031.59;;;4.54;100.00
68525;BME280;55524;51.380;13.372;2023-12-22T01:01:27;98028.97;;;4.54;100.00
68525;BME280;55524;51.380;13.372;2023-12-22T01:04:13;98025.97;;;4.61;100.00
68525;BME280;55524;51.380;13.372;2023-12-22T01:07:03;98023.34;;;4.61;100.00
68525;BME280;55524;51.380;13.372;2023-12-22T01:09:42;98042.59;;;4.60;100.00
68525;BME280;55524;51.380;13.372;2023-12-22T01:12:11;98041.06;;;4.56;100.00
68525;BME280;55524;51.380;13.372;2023-12-22T01:14:47;98062.38;;;4.49;100.00
68525;BME280;55524;51.380;13.372;2023-12-22T01:17:26;98059.53;;;4.53;100.00
68525;BME280;55524;51.380;13.372;2023-12-22T01:19:53;98062.22;;;4.52;100.00
68525;BME280;55524;51.380;13.372;2023-12-22T01:22:22;98072.84;;;4.49;100.00
68525;BME280;55524;51.380;13.372;2023-12-22T01:25:15;98071.81;;;4.51;100.00
68525;BME280;55524;51.380;13.372;2023-12-22T01:27:51;98081.69;;;4.46;100.00
68525;BME280;55524;51.380;13.372;2023-12-22T01:30:18;98081.78;;;4.44;100.00
68525;BME280;55524;51.380;13.372;2023-12-22T01:32:48;98095.84;;;4.42;100.00
68525;BME280;55524;51.380;13.372;2023-12-22T01:35:23;98101.44;;;4.34;100.00
68525;BME280;55524;51.380;13.372;2023-12-22T01:37:49;98120.81;;;4.30;100.00
68525;BME280;55524;51.380;13.372;2023-12-22T01:40:26;98117.28;;;4.31;100.00
68525;BME280;55524;51.380;13.372;2023-12-22T01:42:56;98127.91;;;4.28;100.00
68525;BME280;55524;51.380;13.372;2023-12-22T01:45:45;98134.13;;;4.26;100.00
68525;BME280;55524;51.380;13.372;2023-12-22T01:48:13;98145.66;;;4.22;100.00
68525;BME280;55524;51.380;13.372;2023-12-22T01:50:52;98135.47;;;4.15;100.00
68525;BME280;55524;51.380;13.372;2023-12-22T01:53:43;98134.13;;;4.08;100.00
68525;BME280;55524;51.380;13.372;2023-12-22T01:56:13;98135.09;;;4.06;100.00
68525;BME280;55524;51.380;13.372;2023-12-22T01:58:43;98133.31;;;4.06;100.00
68525;BME280;55524;51.380;13.372;2023-12-22T02:01:29;98121.75;;;4.12;100.00
68525;BME280;55524;51.380;13.372;2023-12-22T02:03:57;98122.41;;;4.15;100.00
68525;BME280;55524;51.380;13.372;2023-12-22T02:06:30;98107.53;;;4.17;100.00
68525;BME280;55524;51.380;13.372;2023-12-22T02:09:01;98124.59;;;4.25;100.00
68525;BME280;55524;51.380;13.372;2023-12-22T02:11:39;98122.03;;;4.23;100.00
68525;BME280;55524;51.380;13.372;2023-12-22T02:14:08;98095.53;;;4.31;100.00
68525;BME280;55524;51.380;13.372;2023-12-22T02:17:14;98121.66;;;4.31;100.00
68525;BME280;55524;51.380;13.372;2023-12-22T02:19:49;98083.16;;;4.34;100.00
68525;BME280;55524;51.380;13.372;2023-12-22T02:22:28;98096.38;;;4.31;100.00
68525;BME280;55524;51.380;13.372;2023-12-22T02:24:54;98096.53;;;4.28;100.00
68525;BME280;55524;51.380;13.372;2023-12-22T02:32:56;98104.06;;;4.17;100.00
68525;BME280;55524;51.380;13.372;2023-12-22T02:35:44;98083.06;;;4.18;100.00
68525;BME280;55524;51.380;13.372;2023-12-22T02:38:20;98101.38;;;4.18;100.00
68525;BME280;55524;51.380;13.372;2023-12-22T02:40:50;98097.22;;;4.14;100.00
68525;BME280;55524;51.380;13.372;2023-12-22T02:43:25;98098.22;;;4.12;100.00
68525;BME280;55524;51.380;13.372;2023-12-22T02:46:00;98080.59;;;4.15;100.00
68525;BME280;55524;51.380;13.372;2023-12-22T02:48:47;98071.84;;;4.16;100.00
68525;BME280;55524;51.380;13.372;2023-12-22T02:51:22;98065.63;;;4.19;100.00
68525;BME280;55524;51.380;13.372;2023-12-22T02:53:51;98066.47;;;4.19;100.00
68525;BME280;55524;51.380;13.372;2023-12-22T02:56:27;98069.16;;;4.18;100.00
68525;BME280;55524;51.380;13.372;2023-12-22T02:58:53;98061.91;;;4.23;100.00
68525;BME280;55524;51.380;13.372;2023-12-22T03:01:28;98052.16;;;4.27;100.00
68525;BME280;55524;51.380;13.372;2023-12-22T03:03:55;98051.25;;;4.28;100.00
68525;BME280;55524;51.380;13.372;2023-12-22T03:06:24;98048.41;;;4.32;100.00
68525;BME280;55524;51.380;13.372;2023-12-22T03:08:53;98049.16;;;4.34;100.00
68525;BME280;55524;51.380;13.372;2023-12-22T03:11:22;98053.41;;;4.37;100.00
68525;BME280;55524;51.380;13.372;2023-12-22T03:13:52;98049.50;;;4.28;100.00
68525;BME280;55524;51.380;13.372;2023-12-22T03:16:27;98060.78;;;4.29;100.00
68525;BME280;55524;51.380;13.372;2023-12-22T03:18:53;98064.53;;;4.23;100.00
68525;BME280;55524;51.380;13.372;2023-12-22T03:21:29;98068.47;;;4.14;100.00
68525;BME280;55524;51.380;13.372;2023-12-22T03:24:18;98075.56;;;4.12;100.00
68525;BME280;55524;51.380;13.372;2023-12-22T03:29:46;98085.31;;;4.09;100.00
68525;BME280;55524;51.380;13.372;2023-12-22T03:32:21;98097.72;;;4.04;100.00
68525;BME280;55524;51.380;13.372;2023-12-22T03:34:47;98102.28;;;4.00;100.00
68525;BME280;55524;51.380;13.372;2023-12-22T03:37:16;98114.88;;;3.92;100.00
68525;BME280;55524;51.380;13.372;2023-12-22T03:39:46;98102.56;;;3.94;100.00
68525;BME280;55524;51.380;13.372;2023-12-22T03:42:12;98092.69;;;4.01;100.00
68525;BME280;55524;51.380;13.372;2023-12-22T03:44:47;98086.75;;;3.97;100.00
68525;BME280;55524;51.380;13.372;2023-12-22T03:47:23;98077.06;;;3.99;100.00
68525;BME280;55524;51.380;13.372;2023-12-22T03:50:09;98082.13;;;4.02;100.00
68525;BME280;55524;51.380;13.372;2023-12-22T03:55:58;98058.53;;;4.04;100.00
68525;BME280;55524;51.380;13.372;2023-12-22T03:58:48;98070.53;;;4.08;100.00
68525;BME280;55524;51.380;13.372;2023-12-22T04:01:14;98064.47;;;4.07;100.00
68525;BME280;55524;51.380;13.372;2023-12-22T04:03:44;98060.16;;;4.06;100.00
68525;BME280;55524;51.380;13.372;2023-12-22T04:06:21;98063.63;;;4.07;100.00
68525;BME280;55524;51.380;13.372;2023-12-22T04:08:48;98068.00;;;4.06;100.00
68525;BME280;55524;51.380;13.372;2023-12-22T04:11:15;98059.09;;;4.10;100.00
68525;BME280;55524;51.380;13.372;2023-12-22T04:13:41;98062.06;;;4.03;100.00
68525;BME280;55524;51.380;13.372;2023-12-22T04:16:08;98072.75;;;3.98;100.00
68525;BME280;55524;51.380;13.372;2023-12-22T04:18:34;98081.44;;;3.99;100.00
68525;BME280;55524;51.380;13.372;2023-12-22T04:21:00;98071.81;;;3.99;100.00
68525;BME280;55524;51.380;13.372;2023-12-22T04:23:27;98070.38;;;3.93;100.00
68525;BME280;55524;51.380;13.372;2023-12-22T04:25:53;98075.59;;;3.93;100.00
68525;BME280;55524;51.380;13.372;2023-12-22T04:28:19;98062.31;;;3.98;100.00
68525;BME280;55524;51.380;13.372;2023-12-22T04:30:47;98063.28;;;3.95;100.00
68525;BME280;55524;51.380;13.372;2023-12-22T04:33:13;98057.41;;;3.92;100.00
68525;BME280;55524;51.380;13.372;2023-12-22T04:35:40;98053.91;;;3.91;100.00
68525;BME280;55524;51.380;13.372;2023-12-22T04:38:07;98048.53;;;3.94;100.00
68525;BME280;55524;51.380;13.372;2023-12-22T04:40:34;98049.38;;;3.95;100.00
68525;BME280;55524;51.380;13.372;2023-12-22T04:43:00;98049.25;;;3.98;100.00
68525;BME280;55524;51.380;13.372;2023-12-22T04:45:26;98051.94;;;3.97;100.00
68525;BME280;55524;51.380;13.372;2023-12-22T04:47:53;98071.31;;;3.92;100.00
68525;BME280;55524;51.380;13.372;2023-12-22T04:50:19;98068.88;;;3.88;100.00
68525;BME280;55524;51.380;13.372;2023-12-22T04:52:45;98080.41;;;3.84;100.00
68525;BME280;55524;51.380;13.372;2023-12-22T04:55:21;98077.97;;;3.81;100.00
68525;BME280;55524;51.380;13.372;2023-12-22T04:58:08;98084.09;;;3.80;100.00
68525;BME280;55524;51.380;13.372;2023-12-22T05:00:40;98082.28;;;3.82;100.00
68525;BME280;55524;51.380;13.372;2023-12-22T05:03:06;98079.56;;;3.83;100.00
68525;BME280;55524;51.380;13.372;2023-12-22T05:05:53;98075.19;;;3.84;100.00
68525;BME280;55524;51.380;13.372;2023-12-22T05:08:42;98074.34;;;3.83;100.00
68525;BME280;55524;51.380;13.372;2023-12-22T05:11:20;98083.34;;;3.78;100.00
68525;BME280;55524;51.380;13.372;2023-12-22T05:13:53;98085.09;;;3.77;100.00
68525;BME280;55524;51.380;13.372;2023-12-22T05:16:51;98091.44;;;3.72;100.00
68525;BME280;55524;51.380;13.372;2023-12-22T05:19:41;98064.25;;;3.76;100.00
68525;BME280;55524;51.380;13.372;2023-12-22T05:22:27;98062.44;;;3.78;100.00
68525;BME280;55524;51.380;13.372;2023-12-22T05:24:59;98045.97;;;3.76;100.00
68525;BME280;55524;51.380;13.372;2023-12-22T05:27:45;98083.69;;;3.70;100.00
68525;BME280;55524;51.380;13.372;2023-12-22T05:30:52;98081.72;;;3.75;100.00
68525;BME280;55524;51.380;13.372;2023-12-22T05:36:19;98051.22;;;3.76;100.00
68525;BME280;55524;51.380;13.372;2023-12-22T05:38:48;98063.75;;;3.86;100.00
68525;BME280;55524;51.380;13.372;2023-12-22T05:41:20;98026.72;;;3.95;100.00
68525;BME280;55524;51.380;13.372;2023-12-22T05:43:52;97996.59;;;4.06;100.00
68525;BME280;55524;51.380;13.372;2023-12-22T05:46:45;98046.63;;;3.98;100.00
68525;BME280;55524;51.380;13.372;2023-12-22T05:49:14;98034.50;;;3.97;100.00
68525;BME280;55524;51.380;13.372;2023-12-22T05:51:50;98039.88;;;3.94;100.00
68525;BME280;55524;51.380;13.372;2023-12-22T05:54:37;98081.28;;;3.84;100.00
68525;BME280;55524;51.380;13.372;2023-12-22T05:57:07;98102.75;;;3.72;100.00
68525;BME280;55524;51.380;13.372;2023-12-22T05:59:42;98112.78;;;3.62;100.00
68525;BME280;55524;51.380;13.372;2023-12-22T06:02:21;98108.63;;;3.58;100.00
68525;BME280;55524;51.380;13.372;2023-12-22T06:04:47;98099.34;;;3.53;100.00
68525;BME280;55524;51.380;13.372;2023-12-22T06:07:22;98139.47;;;3.50;100.00
68525;BME280;55524;51.380;13.372;2023-12-22T06:09:48;98098.31;;;3.55;100.00
68525;BME280;55524;51.380;13.372;2023-12-22T06:12:15;98089.66;;;3.55;100.00
68525;BME280;55524;51.380;13.372;2023-12-22T06:14:50;98102.44;;;3.61;100.00
68525;BME280;55524;51.380;13.372;2023-12-22T06:20:33;98069.72;;;3.71;100.00
68525;BME280;55524;51.380;13.372;2023-12-22T06:23:09;98084.84;;;3.64;100.00
68525;BME280;55524;51.380;13.372;2023-12-22T06:25:56;98081.69;;;3.58;100.00
68525;BME280;55524;51.380;13.372;2023-12-22T06:28:31;98101.59;;;3.60;100.00
68525;BME280;55524;51.380;13.372;2023-12-22T06:30:57;98091.91;;;3.62;100.00
68525;BME280;55524;51.380;13.372;2023-12-22T06:33:24;98100.00;;;3.56;100.00
68525;BME280;55524;51.380;13.372;2023-12-22T06:35:50;98090.34;;;3.58;100.00
68525;BME280;55524;51.380;13.372;2023-12-22T06:38:20;98088.66;;;3.57;100.00
68525;BME280;55524;51.380;13.372;2023-12-22T06:40:46;98084.28;;;3.58;100.00
68525;BME280;55524;51.380;13.372;2023-12-22T06:43:13;98093.19;;;3.54;100.00
68525;BME280;55524;51.380;13.372;2023-12-22T06:45:45;98093.88;;;3.57;100.00
68525;BME280;55524;51.380;13.372;2023-12-22T06:48:11;98104.25;;;3.59;100.00
68525;BME280;55524;51.380;13.372;2023-12-22T06:54:04;98101.78;;;3.56;100.00
68525;BME280;55524;51.380;13.372;2023-12-22T06:56:34;98106.72;;;3.62;100.00
68525;BME280;55524;51.380;13.372;2023-12-22T06:59:05;98103.31;;;3.60;100.00
68525;BME280;55524;51.380;13.372;2023-12-22T07:01:52;98107.56;;;3.62;100.00
68525;BME280;55524;51.380;13.372;2023-12-22T07:04:19;98097.69;;;3.69;100.00
68525;BME280;55524;51.380;13.372;2023-12-22T07:06:48;98111.59;;;3.69;100.00
68525;BME280;55524;51.380;13.372;2023-12-22T07:14:36;98077.81;;;3.84;100.00
68525;BME280;55524;51.380;13.372;2023-12-22T07:17:03;98073.28;;;3.87;100.00
68525;BME280;55524;51.380;13.372;2023-12-22T07:19:29;98068.00;;;4.06;100.00
68525;BME280;55524;51.380;13.372;2023-12-22T07:21:56;98101.97;;;4.06;100.00
68525;BME280;55524;51.380;13.372;2023-12-22T07:24:22;98058.72;;;4.01;100.00
68525;BME280;55524;51.380;13.372;2023-12-22T07:26:49;98060.31;;;4.03;100.00
68525;BME280;55524;51.380;13.372;2023-12-22T07:29:15;98074.16;;;4.05;100.00
68525;BME280;55524;51.380;13.372;2023-12-22T07:31:45;98104.81;;;4.02;100.00
68525;BME280;55524;51.380;13.372;2023-12-22T07:34:17;98131.16;;;3.97;100.00
68525;BME280;55524;51.380;13.372;2023-12-22T07:36:44;98132.25;;;3.93;100.00
68525;BME280;55524;51.380;13.372;2023-12-22T07:39:20;98144.66;;;3.88;100.00
68525;BME280;55524;51.380;13.372;2023-12-22T07:41:46;98137.75;;;3.87;100.00
68525;BME280;55524;51.380;13.372;2023-12-22T07:44:17;98167.53;;;3.83;100.00
68525;BME280;55524;51.380;13.372;2023-12-22T07:46:55;98167.91;;;3.56;100.00
68525;BME280;55524;51.380;13.372;2023-12-22T07:49:50;98195.91;;;3.34;100.00
68525;BME280;55524;51.380;13.372;2023-12-22T07:52:35;98185.94;;;3.23;100.00
68525;BME280;55524;51.380;13.372;2023-12-22T07:55:22;98203.28;;;3.24;100.00
68525;BME280;55524;51.380;13.372;2023-12-22T07:57:49;98216.81;;;3.13;100.00
68525;BME280;55524;51.380;13.372;2023-12-22T08:00:17;98241.53;;;3.05;100.00
68525;BME280;55524;51.380;13.372;2023-12-22T08:02:47;98242.84;;;2.94;100.00
68525;BME280;55524;51.380;13.372;2023-12-22T08:05:14;98266.09;;;2.79;100.00
68525;BME280;55524;51.380;13.372;2023-12-22T08:07:40;98282.25;;;2.66;100.00
68525;BME280;55524;51.380;13.372;2023-12-22T08:10:10;98273.91;;;2.58;100.00
68525;BME280;55524;51.380;13.372;2023-12-22T08:12:37;98283.09;;;2.67;100.00
68525;BME280;55524;51.380;13.372;2023-12-22T08:15:07;98303.53;;;2.78;100.00
68525;BME280;55524;51.380;13.372;2023-12-22T08:18:22;98302.84;;;2.72;100.00
68525;BME280;55524;51.380;13.372;2023-12-22T08:20:49;98303.88;;;2.68;100.00
68525;BME280;55524;51.380;13.372;2023-12-22T08:23:26;98300.09;;;2.55;100.00
68525;BME280;55524;51.380;13.372;2023-12-22T08:25:52;98297.03;;;2.44;100.00
68525;BME280;55524;51.380;13.372;2023-12-22T08:28:19;98308.88;;;2.31;100.00
68525;BME280;55524;51.380;13.372;2023-12-22T08:30:46;98320.31;;;2.27;100.00
68525;BME280;55524;51.380;13.372;2023-12-22T08:33:14;98329.16;;;2.22;100.00
68525;BME280;55524;51.380;13.372;2023-12-22T08:35:44;98344.78;;;2.22;100.00
68525;BME280;55524;51.380;13.372;2023-12-22T08:38:34;98329.59;;;2.34;100.00
68525;BME280;55524;51.380;13.372;2023-12-22T08:41:15;98328.75;;;2.55;100.00
68525;BME280;55524;51.380;13.372;2023-12-22T08:47:08;98341.41;;;2.64;100.00
68525;BME280;55524;51.380;13.372;2023-12-22T08:49:35;98339.25;;;2.76;100.00
68525;BME280;55524;51.380;13.372;2023-12-22T08:52:02;98328.75;;;2.77;100.00
68525;BME280;55524;51.380;13.372;2023-12-22T08:54:32;98320.78;;;2.80;100.00
68525;BME280;55524;51.380;13.372;2023-12-22T08:57:03;98332.44;;;2.93;100.00
68525;BME280;55524;51.380;13.372;2023-12-22T08:59:29;98317.34;;;3.02;100.00
68525;BME280;55524;51.380;13.372;2023-12-22T09:02:21;98316.97;;;2.89;100.00
68525;BME280;55524;51.380;13.372;2023-12-22T09:04:52;98324.25;;;2.81;100.00
68525;BME280;55524;51.380;13.372;2023-12-22T09:07:22;98326.75;;;2.84;100.00
68525;BME280;55524;51.380;13.372;2023-12-22T09:09:52;98311.94;;;2.84;100.00
68525;BME280;55524;51.380;13.372;2023-12-22T09:12:23;98333.31;;;2.94;100.00
68525;BME280;55524;51.380;13.372;2023-12-22T09:14:57;98297.88;;;3.09;100.00
68525;BME280;55524;51.380;13.372;2023-12-22T09:17:48;98299.00;;;3.24;100.00
68525;BME280;55524;51.380;13.372;2023-12-22T09:20:16;98300.19;;;3.37;100.00
68525;BME280;55524;51.380;13.372;2023-12-22T09:23:03;98303.50;;;3.40;100.00
68525;BME280;55524;51.380;13.372;2023-12-22T09:25:36;98314.91;;;3.58;100.00
68525;BME280;55524;51.380;13.372;2023-12-22T09:28:06;98339.06;;;3.63;100.00
68525;BME280;55524;51.380;13.372;2023-12-22T09:30:36;98345.00;;;3.47;100.00
68525;BME280;55524;51.380;13.372;2023-12-22T09:33:03;98364.25;;;3.24;100.00
68525;BME280;55524;51.380;13.372;2023-12-22T09:35:54;98381.06;;;3.16;100.00
68525;BME280;55524;51.380;13.372;2023-12-22T09:38:51;98371.50;;;3.17;100.00
68525;BME280;55524;51.380;13.372;2023-12-22T09:48:18;98385.94;;;3.26;100.00
68525;BME280;55524;51.380;13.372;2023-12-22T09:50:47;98384.09;;;3.28;100.00
68525;BME280;55524;51.380;13.372;2023-12-22T09:53:14;98391.03;;;3.29;100.00
68525;BME280;55524;51.380;13.372;2023-12-22T09:55:49;98385.59;;;3.33;100.00
68525;BME280;55524;51.380;13.372;2023-12-22T09:58:17;98379.66;;;3.30;100.00
68525;BME280;55524;51.380;13.372;2023-12-22T10:00:47;98403.03;;;3.33;100.00
68525;BME280;55524;51.380;13.372;2023-12-22T10:03:19;98409.94;;;3.34;100.00
68525;BME280;55524;51.380;13.372;2023-12-22T10:05:47;98406.34;;;3.36;100.00
68525;BME280;55524;51.380;13.372;2023-12-22T10:08:14;98414.97;;;3.38;100.00
68525;BME280;55524;51.380;13.372;2023-12-22T10:11:01;98396.38;;;3.46;100.00
68525;BME280;55524;51.380;13.372;2023-12-22T10:13:28;98384.50;;;3.59;100.00
68525;BME280;55524;51.380;13.372;2023-12-22T10:15:58;98373.34;;;3.76;100.00
68525;BME280;55524;51.380;13.372;2023-12-22T10:21:26;98304.75;;;4.10;100.00
68525;BME280;55524;51.380;13.372;2023-12-22T10:23:58;98295.63;;;4.19;100.00
68525;BME280;55524;51.380;13.372;2023-12-22T10:26:54;98305.47;;;4.33;100.00
68525;BME280;55524;51.380;13.372;2023-12-22T10:29:44;98296.06;;;4.29;100.00
68525;BME280;55524;51.380;13.372;2023-12-22T10:32:10;98292.53;;;4.30;100.00
68525;BME280;55524;51.380;13.372;2023-12-22T10:38:16;98278.72;;;4.45;100.00
68525;BME280;55524;51.380;13.372;2023-12-22T10:41:07;98287.50;;;4.44;100.00
68525;BME280;55524;51.380;13.372;2023-12-22T10:43:47;98299.78;;;4.42;100.00
68525;BME280;55524;51.380;13.372;2023-12-22T10:46:40;98292.44;;;4.31;100.00
68525;BME280;55524;51.380;13.372;2023-12-22T10:49:08;98298.72;;;4.27;100.00
68525;BME280;55524;51.380;13.372;2023-12-22T10:51:34;98283.03;;;4.27;100.00
68525;BME280;55524;51.380;13.372;2023-12-22T10:54:10;98316.66;;;4.35;100.00
68525;BME280;55524;51.380;13.372;2023-12-22T10:56:40;98326.50;;;4.30;100.00
68525;BME280;55524;51.380;13.372;2023-12-22T10:59:11;98373.88;;;4.03;100.00
68525;BME280;55524;51.380;13.372;2023-12-22T11:01:38;98347.69;;;4.05;100.00
68525;BME280;55524;51.380;13.372;2023-12-22T11:04:17;98353.13;;;3.80;100.00
68525;BME280;55524;51.380;13.372;2023-12-22T11:06:49;98359.69;;;3.69;100.00
68525;BME280;55524;51.380;13.372;2023-12-22T11:09:17;98371.00;;;3.70;100.00
68525;BME280;55524;51.380;13.372;2023-12-22T11:11:48;98358.56;;;3.75;100.00
68525;BME280;55524;51.380;13.372;2023-12-22T11:14:15;98355.00;;;3.78;100.00
68525;BME280;55524;51.380;13.372;2023-12-22T11:16:44;98365.63;;;3.73;100.00
68525;BME280;55524;51.380;13.372;2023-12-22T11:19:14;98397.38;;;3.84;100.00
68525;BME280;55524;51.380;13.372;2023-12-22T11:21:41;98377.28;;;4.05;100.00
68525;BME280;55524;51.380;13.372;2023-12-22T11:24:13;98372.56;;;4.13;100.00
68525;BME280;55524;51.380;13.372;2023-12-22T11:26:42;98392.63;;;4.13;100.00
68525;BME280;55524;51.380;13.372;2023-12-22T11:29:11;98384.53;;;3.99;100.00
68525;BME280;55524;51.380;13.372;2023-12-22T11:31:39;98390.44;;;3.83;100.00
68525;BME280;55524;51.380;13.372;2023-12-22T11:34:07;98419.38;;;3.79;100.00
68525;BME280;55524;51.380;13.372;2023-12-22T11:36:54;98387.09;;;3.80;100.00
68525;BME280;55524;51.380;13.372;2023-12-22T11:39:21;98397.31;;;3.65;100.00
68525;BME280;55524;51.380;13.372;2023-12-22T11:44:53;98388.03;;;3.38;100.00
68525;BME280;55524;51.380;13.372;2023-12-22T11:47:27;98381.75;;;3.42;100.00
68525;BME280;55524;51.380;13.372;2023-12-22T11:49:57;98394.00;;;3.40;100.00
68525;BME280;55524;51.380;13.372;2023-12-22T11:53:17;98397.81;;;3.33;100.00
68525;BME280;55524;51.380;13.372;2023-12-22T11:56:08;98386.50;;;3.32;100.00
68525;BME280;55524;51.380;13.372;2023-12-22T11:58:42;98398.06;;;3.27;100.00
68525;BME280;55524;51.380;13.372;2023-12-22T12:01:13;98396.06;;;3.33;100.00
68525;BME280;55524;51.380;13.372;2023-12-22T12:03:53;98394.41;;;3.31;100.00
68525;BME280;55524;51.380;13.372;2023-12-22T12:06:32;98386.03;;;3.23;100.00
68525;BME280;55524;51.380;13.372;2023-12-22T12:09:05;98373.19;;;3.18;100.00
68525;BME280;55524;51.380;13.372;2023-12-22T12:12:09;98357.56;;;3.16;100.00
68525;BME280;55524;51.380;13.372;2023-12-22T12:14:40;98361.63;;;3.24;100.00
68525;BME280;55524;51.380;13.372;2023-12-22T12:17:24;98358.97;;;3.25;100.00
68525;BME280;55524;51.380;13.372;2023-12-22T12:23:42;98365.44;;;3.37;100.00
68525;BME280;55524;51.380;13.372;2023-12-22T12:26:25;98341.56;;;3.46;100.00
68525;BME280;55524;51.380;13.372;2023-12-22T12:29:05;98359.75;;;3.48;100.00
68525;BME280;55524;51.380;13.372;2023-12-22T12:35:22;98333.47;;;3.91;100.00
68525;BME280;55524;51.380;13.372;2023-12-22T12:37:57;98311.31;;;4.00;100.00
68525;BME280;55524;51.380;13.372;2023-12-22T12:40:59;98291.25;;;3.82;100.00
68525;BME280;55524;51.380;13.372;2023-12-22T12:43:29;98316.47;;;3.62;100.00
68525;BME280;55524;51.380;13.372;2023-12-22T12:46:19;98321.44;;;3.48;100.00
68525;BME280;55524;51.380;13.372;2023-12-22T12:49:05;98352.41;;;3.37;100.00
68525;BME280;55524;51.380;13.372;2023-12-22T12:52:15;98354.72;;;3.23;100.00
68525;BME280;55524;51.380;13.372;2023-12-22T12:57:51;98331.75;;;3.10;100.00
68525;BME280;55524;51.380;13.372;2023-12-22T13:03:59;98366.28;;;2.95;100.00
68525;BME280;55524;51.380;13.372;2023-12-22T13:16:17;98388.25;;;2.89;100.00
68525;BME280;55524;51.380;13.372;2023-12-22T13:18:58;98390.06;;;2.87;100.00
68525;BME280;55524;51.380;13.372;2023-12-22T13:21:41;98380.84;;;2.79;100.00
68525;BME280;55524;51.380;13.372;2023-12-22T13:24:14;98394.00;;;2.76;100.00
68525;BME280;55524;51.380;13.372;2023-12-22T13:27:08;98390.22;;;2.61;100.00
68525;BME280;55524;51.380;13.372;2023-12-22T13:37:06;98427.75;;;2.10;100.00
68525;BME280;55524;51.380;13.372;2023-12-22T13:39:33;98428.03;;;2.02;100.00
68525;BME280;55524;51.380;13.372;2023-12-22T13:42:23;98428.06;;;2.01;100.00
68525;BME280;55524;51.380;13.372;2023-12-22T13:45:31;98414.38;;;1.95;100.00
68525;BME280;55524;51.380;13.372;2023-12-22T13:48:36;98413.84;;;1.86;100.00
68525;BME280;55524;51.380;13.372;2023-12-22T13:51:28;98419.91;;;1.86;100.00
68525;BME280;55524;51.380;13.372;2023-12-22T13:54:55;98416.31;;;1.90;100.00
68525;BME280;55524;51.380;13.372;2023-12-22T14:01:16;98420.59;;;1.91;100.00
68525;BME280;55524;51.380;13.372;2023-12-22T14:04:34;98437.97;;;1.91;100.00
68525;BME280;55524;51.380;13.372;2023-12-22T14:14:22;98422.22;;;1.94;100.00
68525;BME280;55524;51.380;13.372;2023-12-22T14:28:27;98427.72;;;1.86;100.00
68525;BME280;55524;51.380;13.372;2023-12-22T14:46:11;98427.25;;;2.24;100.00
68525;BME280;55524;51.380;13.372;2023-12-22T14:48:38;98408.09;;;2.25;100.00
68525;BME280;55524;51.380;13.372;2023-12-22T14:55:12;98418.50;;;2.26;100.00
68525;BME280;55524;51.380;13.372;2023-12-22T14:57:47;98418.69;;;2.20;100.00
68525;BME280;55524;51.380;13.372;2023-12-22T15:00:24;98412.63;;;2.19;100.00
68525;BME280;55524;51.380;13.372;2023-12-22T15:02:54;98420.47;;;2.19;100.00
68525;BME280;55524;51.380;13.372;2023-12-22T15:05:29;98423.91;;;2.20;100.00
68525;BME280;55524;51.380;13.372;2023-12-22T15:07:58;98412.84;;;2.13;100.00
68525;BME280;55524;51.380;13.372;2023-12-22T15:10:25;98424.19;;;2.12;100.00
68525;BME280;55524;51.380;13.372;2023-12-22T15:12:51;98406.91;;;2.10;100.00
68525;BME280;55524;51.380;13.372;2023-12-22T15:15:18;98412.84;;;2.13;100.00
68525;BME280;55524;51.380;13.372;2023-12-22T15:17:47;98422.44;;;2.13;100.00
68525;BME280;55524;51.380;13.372;2023-12-22T15:20:15;98408.34;;;2.18;100.00
68525;BME280;55524;51.380;13.372;2023-12-22T15:22:41;98402.22;;;2.19;100.00
68525;BME280;55524;51.380;13.372;2023-12-22T15:25:08;98409.13;;;2.20;100.00
68525;BME280;55524;51.380;13.372;2023-12-22T15:27:48;98400.28;;;2.25;100.00
68525;BME280;55524;51.380;13.372;2023-12-22T15:33:54;98398.13;;;2.36;100.00
68525;BME280;55524;51.380;13.372;2023-12-22T15:36:46;98410.16;;;2.40;100.00
68525;BME280;55524;51.380;13.372;2023-12-22T15:39:43;98407.38;;;2.44;100.00
68525;BME280;55524;51.380;13.372;2023-12-22T15:42:13;98416.75;;;2.49;100.00